sensor_id;sensor_type;location;lat;lon;timestamp;pressure;altitude;pressure_sealevel;temperature
29701;BMP280;57917;51.380;-0.176;2023-11-22T00:02:06;102666.09;;;8.86
29701;BMP280;57917;51.380;-0.176;2023-11-22T00:08:00;102649.66;;;8.46
29701;BMP280;57917;51.380;-0.176;2023-11-22T00:14:10;102667.50;;;8.50
29701;BMP280;57917;51.380;-0.176;2023-11-22T00:20:03;102690.19;;;8.64
29701;BMP280;57917;51.380;-0.176;2023-11-22T00:25:57;102691.59;;;8.73
29701;BMP280;57917;51.380;-0.176;2023-11-22T00:31:53;102686.38;;;8.60
29701;BMP280;57917;51.380;-0.176;2023-11-22T00:37:45;102677.47;;;8.48
29701;BMP280;57917;51.380;-0.176;2023-11-22T00:43:35;102672.41;;;8.47
29701;BMP280;57917;51.380;-0.176;2023-11-22T00:49:26;102672.88;;;8.31
29701;BMP280;57917;51.380;-0.176;2023-11-22T00:55:16;102674.44;;;8.45
29701;BMP280;57917;51.380;-0.176;2023-11-22T01:01:07;102669.16;;;8.51
29701;BMP280;57917;51.380;-0.176;2023-11-22T01:06:54;102655.78;;;8.40
29701;BMP280;57917;51.380;-0.176;2023-11-22T01:12:44;102672.28;;;8.29
29701;BMP280;57917;51.380;-0.176;2023-11-22T01:18:34;102670.25;;;8.31
29701;BMP280;57917;51.380;-0.176;2023-11-22T01:24:28;102678.97;;;8.31
29701;BMP280;57917;51.380;-0.176;2023-11-22T01:30:20;102686.91;;;8.31
29701;BMP280;57917;51.380;-0.176;2023-11-22T01:36:13;102689.13;;;8.28
29701;BMP280;57917;51.380;-0.176;2023-11-22T01:42:00;102701.91;;;8.31
29701;BMP280;57917;51.380;-0.176;2023-11-22T01:48:01;102703.72;;;8.43
29701;BMP280;57917;51.380;-0.176;2023-11-22T01:53:52;102710.66;;;8.25
29701;BMP280;57917;51.380;-0.176;2023-11-22T01:59:45;102699.88;;;8.33
29701;BMP280;57917;51.380;-0.176;2023-11-22T02:05:34;102692.13;;;8.38
29701;BMP280;57917;51.380;-0.176;2023-11-22T02:11:21;102718.13;;;8.28
29701;BMP280;57917;51.380;-0.176;2023-11-22T02:17:09;102706.16;;;8.32
29701;BMP280;57917;51.380;-0.176;2023-11-22T02:23:07;102720.75;;;8.41
29701;BMP280;57917;51.380;-0.176;2023-11-22T02:28:59;102716.47;;;8.40
29701;BMP280;57917;51.380;-0.176;2023-11-22T02:34:51;102714.25;;;8.37
29701;BMP280;57917;51.380;-0.176;2023-11-22T02:40:41;102708.16;;;8.43
29701;BMP280;57917;51.380;-0.176;2023-11-22T02:46:29;102709.00;;;8.43
29701;BMP280;57917;51.380;-0.176;2023-11-22T02:52:21;102695.53;;;8.45
29701;BMP280;57917;51.380;-0.176;2023-11-22T02:58:08;102703.09;;;8.35
29701;BMP280;57917;51.380;-0.176;2023-11-22T03:03:55;102711.63;;;8.37
29701;BMP280;57917;51.380;-0.176;2023-11-22T03:09:42;102718.72;;;8.36
29701;BMP280;57917;51.380;-0.176;2023-11-22T03:15:34;102712.03;;;8.40
29701;BMP280;57917;51.380;-0.176;2023-11-22T03:21:31;102702.88;;;8.43
29701;BMP280;57917;51.380;-0.176;2023-11-22T03:27:44;102699.50;;;8.23
29701;BMP280;57917;51.380;-0.176;2023-11-22T03:33:36;102707.84;;;8.07
29701;BMP280;57917;51.380;-0.176;2023-11-22T03:39:23;102713.13;;;8.00
29701;BMP280;57917;51.380;-0.176;2023-11-22T03:45:11;102732.63;;;8.12
29701;BMP280;57917;51.380;-0.176;2023-11-22T03:50:59;102754.13;;;8.03
29701;BMP280;57917;51.380;-0.176;2023-11-22T03:56:47;102743.97;;;7.93
29701;BMP280;57917;51.380;-0.176;2023-11-22T04:02:34;102743.38;;;7.78
29701;BMP280;57917;51.380;-0.176;2023-11-22T04:08:21;102747.63;;;7.73
29701;BMP280;57917;51.380;-0.176;2023-11-22T04:14:08;102741.13;;;7.42
29701;BMP280;57917;51.380;-0.176;2023-11-22T04:19:55;102752.06;;;7.39
29701;BMP280;57917;51.380;-0.176;2023-11-22T04:25:42;102760.97;;;7.38
29701;BMP280;57917;51.380;-0.176;2023-11-22T04:31:30;102755.44;;;7.14
29701;BMP280;57917;51.380;-0.176;2023-11-22T04:37:17;102779.34;;;7.25
29701;BMP280;57917;51.380;-0.176;2023-11-22T04:43:04;102780.78;;;7.21
29701;BMP280;57917;51.380;-0.176;2023-11-22T04:48:51;102776.34;;;7.28
29701;BMP280;57917;51.380;-0.176;2023-11-22T04:54:41;102772.88;;;7.21
29701;BMP280;57917;51.380;-0.176;2023-11-22T05:00:28;102767.44;;;7.29
29701;BMP280;57917;51.380;-0.176;2023-11-22T05:06:15;102756.53;;;7.52
29701;BMP280;57917;51.380;-0.176;2023-11-22T05:12:03;102753.91;;;7.45
29701;BMP280;57917;51.380;-0.176;2023-11-22T05:17:52;102779.84;;;7.62
29701;BMP280;57917;51.380;-0.176;2023-11-22T05:23:40;102769.53;;;7.53
29701;BMP280;57917;51.380;-0.176;2023-11-22T05:29:31;102762.19;;;7.42
29701;BMP280;57917;51.380;-0.176;2023-11-22T05:35:29;102786.94;;;7.41
29701;BMP280;57917;51.380;-0.176;2023-11-22T05:41:16;102786.09;;;7.34
29701;BMP280;57917;51.380;-0.176;2023-11-22T05:47:03;102795.53;;;7.09
29701;BMP280;57917;51.380;-0.176;2023-11-22T05:52:53;102787.28;;;7.12
29701;BMP280;57917;51.380;-0.176;2023-11-22T05:58:40;102762.31;;;7.02
29701;BMP280;57917;51.380;-0.176;2023-11-22T06:04:27;102773.50;;;7.30
29701;BMP280;57917;51.380;-0.176;2023-11-22T06:10:14;102744.31;;;7.18
29701;BMP280;57917;51.380;-0.176;2023-11-22T06:16:02;102731.72;;;7.07
29701;BMP280;57917;51.380;-0.176;2023-11-22T06:21:49;102752.97;;;7.06
29701;BMP280;57917;51.380;-0.176;2023-11-22T06:27:37;102746.53;;;7.08
29701;BMP280;57917;51.380;-0.176;2023-11-22T06:33:26;102757.63;;;6.97
29701;BMP280;57917;51.380;-0.176;2023-11-22T06:39:13;102759.00;;;6.93
29701;BMP280;57917;51.380;-0.176;2023-11-22T06:45:01;102783.81;;;6.71
29701;BMP280;57917;51.380;-0.176;2023-11-22T06:50:48;102801.44;;;6.71
29701;BMP280;57917;51.380;-0.176;2023-11-22T06:56:35;102801.03;;;6.74
29701;BMP280;57917;51.380;-0.176;2023-11-22T07:02:30;102777.03;;;6.90
29701;BMP280;57917;51.380;-0.176;2023-11-22T07:08:18;102764.47;;;6.92
29701;BMP280;57917;51.380;-0.176;2023-11-22T07:14:05;102757.00;;;6.95
29701;BMP280;57917;51.380;-0.176;2023-11-22T07:19:53;102756.03;;;7.09
29701;BMP280;57917;51.380;-0.176;2023-11-22T07:25:41;102751.66;;;7.29
29701;BMP280;57917;51.380;-0.176;2023-11-22T07:31:33;102786.25;;;7.20
29701;BMP280;57917;51.380;-0.176;2023-11-22T07:37:23;102808.84;;;7.35
29701;BMP280;57917;51.380;-0.176;2023-11-22T07:43:11;102818.59;;;7.48
29701;BMP280;57917;51.380;-0.176;2023-11-22T07:49:02;102824.16;;;7.19
29701;BMP280;57917;51.380;-0.176;2023-11-22T07:54:50;102824.59;;;7.29
29701;BMP280;57917;51.380;-0.176;2023-11-22T08:00:49;102828.75;;;7.57
29701;BMP280;57917;51.380;-0.176;2023-11-22T08:06:36;102829.75;;;7.56
29701;BMP280;57917;51.380;-0.176;2023-11-22T08:12:26;102832.00;;;7.60
29701;BMP280;57917;51.380;-0.176;2023-11-22T08:18:16;102845.19;;;7.60
29701;BMP280;57917;51.380;-0.176;2023-11-22T08:24:04;102838.72;;;7.95
29701;BMP280;57917;51.380;-0.176;2023-11-22T08:29:51;102827.16;;;8.15
29701;BMP280;57917;51.380;-0.176;2023-11-22T08:35:46;102829.81;;;8.28
29701;BMP280;57917;51.380;-0.176;2023-11-22T08:41:44;102823.53;;;8.23
29701;BMP280;57917;51.380;-0.176;2023-11-22T08:47:42;102818.63;;;8.26
29701;BMP280;57917;51.380;-0.176;2023-11-22T08:53:45;102819.69;;;8.12
29701;BMP280;57917;51.380;-0.176;2023-11-22T08:59:57;102816.59;;;8.41
29701;BMP280;57917;51.380;-0.176;2023-11-22T09:05:53;102803.31;;;8.67
29701;BMP280;57917;51.380;-0.176;2023-11-22T09:11:47;102807.50;;;8.88
29701;BMP280;57917;51.380;-0.176;2023-11-22T09:17:34;102799.22;;;9.22
29701;BMP280;57917;51.380;-0.176;2023-11-22T09:23:22;102790.38;;;9.41
29701;BMP280;57917;51.380;-0.176;2023-11-22T09:29:18;102783.16;;;9.55
29701;BMP280;57917;51.380;-0.176;2023-11-22T09:35:08;102798.97;;;9.61
29701;BMP280;57917;51.380;-0.176;2023-11-22T09:40:58;102799.03;;;9.55
29701;BMP280;57917;51.380;-0.176;2023-11-22T09:46:51;102785.69;;;9.43
29701;BMP280;57917;51.380;-0.176;2023-11-22T09:52:40;102776.38;;;9.65
29701;BMP280;57917;51.380;-0.176;2023-11-22T09:58:42;102771.28;;;9.64
29701;BMP280;57917;51.380;-0.176;2023-11-22T10:04:36;102764.91;;;9.71
29701;BMP280;57917;51.380;-0.176;2023-11-22T10:10:25;102742.16;;;9.88
29701;BMP280;57917;51.380;-0.176;2023-11-22T10:16:17;102738.94;;;9.86
29701;BMP280;57917;51.380;-0.176;2023-11-22T10:22:07;102729.97;;;9.87
29701;BMP280;57917;51.380;-0.176;2023-11-22T10:27:56;102737.44;;;9.72
29701;BMP280;57917;51.380;-0.176;2023-11-22T10:33:49;102742.28;;;9.75
29701;BMP280;57917;51.380;-0.176;2023-11-22T10:39:41;102725.03;;;9.73
29701;BMP280;57917;51.380;-0.176;2023-11-22T10:45:34;102711.41;;;9.69
29701;BMP280;57917;51.380;-0.176;2023-11-22T10:51:31;102703.41;;;9.76
29701;BMP280;57917;51.380;-0.176;2023-11-22T10:57:26;102712.16;;;9.76
29701;BMP280;57917;51.380;-0.176;2023-11-22T11:03:17;102695.94;;;9.73
29701;BMP280;57917;51.380;-0.176;2023-11-22T11:09:06;102691.16;;;9.81
29701;BMP280;57917;51.380;-0.176;2023-11-22T11:14:56;102674.72;;;10.16
29701;BMP280;57917;51.380;-0.176;2023-11-22T11:20:52;102678.69;;;10.25
29701;BMP280;57917;51.380;-0.176;2023-11-22T11:26:40;102700.13;;;10.35
29701;BMP280;57917;51.380;-0.176;2023-11-22T11:32:31;102691.56;;;10.51
29701;BMP280;57917;51.380;-0.176;2023-11-22T11:38:30;102676.00;;;10.84
29701;BMP280;57917;51.380;-0.176;2023-11-22T11:44:19;102650.59;;;11.06
29701;BMP280;57917;51.380;-0.176;2023-11-22T11:50:07;102633.31;;;11.15
29701;BMP280;57917;51.380;-0.176;2023-11-22T11:55:54;102643.25;;;11.08
29701;BMP280;57917;51.380;-0.176;2023-11-22T12:01:42;102617.03;;;11.00
29701;BMP280;57917;51.380;-0.176;2023-11-22T12:07:29;102593.75;;;10.90
29701;BMP280;57917;51.380;-0.176;2023-11-22T12:13:20;102548.59;;;10.85
29701;BMP280;57917;51.380;-0.176;2023-11-22T12:19:09;102552.75;;;10.81
29701;BMP280;57917;51.380;-0.176;2023-11-22T12:24:58;102554.81;;;10.91
29701;BMP280;57917;51.380;-0.176;2023-11-22T12:30:45;102565.44;;;10.91
29701;BMP280;57917;51.380;-0.176;2023-11-22T12:36:33;102601.59;;;10.85
29701;BMP280;57917;51.380;-0.176;2023-11-22T12:42:27;102622.34;;;10.88
29701;BMP280;57917;51.380;-0.176;2023-11-22T12:48:23;102614.06;;;10.96
29701;BMP280;57917;51.380;-0.176;2023-11-22T12:54:11;102592.63;;;11.32
29701;BMP280;57917;51.380;-0.176;2023-11-22T13:00:00;102572.56;;;11.13
29701;BMP280;57917;51.380;-0.176;2023-11-22T13:05:47;102557.78;;;11.29
29701;BMP280;57917;51.380;-0.176;2023-11-22T13:11:35;102537.41;;;11.41
29701;BMP280;57917;51.380;-0.176;2023-11-22T13:17:23;102498.63;;;11.40
29701;BMP280;57917;51.380;-0.176;2023-11-22T13:23:10;102500.78;;;11.26
29701;BMP280;57917;51.380;-0.176;2023-11-22T13:28:57;102530.56;;;11.45
29701;BMP280;57917;51.380;-0.176;2023-11-22T13:34:48;102533.25;;;11.22
29701;BMP280;57917;51.380;-0.176;2023-11-22T13:40:37;102556.69;;;11.02
29701;BMP280;57917;51.380;-0.176;2023-11-22T13:46:29;102551.28;;;11.20
29701;BMP280;57917;51.380;-0.176;2023-11-22T13:52:16;102529.25;;;11.08
29701;BMP280;57917;51.380;-0.176;2023-11-22T13:58:03;102533.47;;;11.32
29701;BMP280;57917;51.380;-0.176;2023-11-22T14:03:52;102511.44;;;11.31
29701;BMP280;57917;51.380;-0.176;2023-11-22T14:09:39;102513.06;;;11.21
29701;BMP280;57917;51.380;-0.176;2023-11-22T14:15:27;102510.44;;;11.32
29701;BMP280;57917;51.380;-0.176;2023-11-22T14:21:14;102495.84;;;11.47
29701;BMP280;57917;51.380;-0.176;2023-11-22T14:27:03;102492.38;;;11.46
29701;BMP280;57917;51.380;-0.176;2023-11-22T14:32:56;102511.63;;;11.53
29701;BMP280;57917;51.380;-0.176;2023-11-22T14:38:46;102502.47;;;11.32
29701;BMP280;57917;51.380;-0.176;2023-11-22T14:44:40;102502.47;;;11.21
29701;BMP280;57917;51.380;-0.176;2023-11-22T14:50:27;102505.38;;;11.31
29701;BMP280;57917;51.380;-0.176;2023-11-22T14:56:15;102491.00;;;11.55
29701;BMP280;57917;51.380;-0.176;2023-11-22T15:02:06;102488.91;;;11.57
29701;BMP280;57917;51.380;-0.176;2023-11-22T15:07:59;102496.44;;;11.49
29701;BMP280;57917;51.380;-0.176;2023-11-22T15:13:49;102491.59;;;11.46
29701;BMP280;57917;51.380;-0.176;2023-11-22T15:19:43;102495.44;;;11.15
29701;BMP280;57917;51.380;-0.176;2023-11-22T15:25:33;102502.06;;;11.01
29701;BMP280;57917;51.380;-0.176;2023-11-22T15:31:20;102516.13;;;10.78
29701;BMP280;57917;51.380;-0.176;2023-11-22T15:37:10;102513.78;;;11.05
29701;BMP280;57917;51.380;-0.176;2023-11-22T15:43:04;102497.09;;;10.93
29701;BMP280;57917;51.380;-0.176;2023-11-22T15:48:54;102496.06;;;10.94
29701;BMP280;57917;51.380;-0.176;2023-11-22T15:54:51;102510.91;;;11.06
29701;BMP280;57917;51.380;-0.176;2023-11-22T16:00:43;102494.84;;;11.36
29701;BMP280;57917;51.380;-0.176;2023-11-22T16:06:36;102506.53;;;11.35
29701;BMP280;57917;51.380;-0.176;2023-11-22T16:12:27;102504.94;;;11.11
29701;BMP280;57917;51.380;-0.176;2023-11-22T16:18:19;102492.94;;;10.85
29701;BMP280;57917;51.380;-0.176;2023-11-22T16:24:38;102493.97;;;11.19
29701;BMP280;57917;51.380;-0.176;2023-11-22T16:30:26;102491.78;;;11.16
29701;BMP280;57917;51.380;-0.176;2023-11-22T16:36:16;102494.28;;;11.34
29701;BMP280;57917;51.380;-0.176;2023-11-22T16:42:25;102490.06;;;11.50
29701;BMP280;57917;51.380;-0.176;2023-11-22T16:48:22;102482.47;;;11.53
29701;BMP280;57917;51.380;-0.176;2023-11-22T16:54:36;102483.72;;;11.51
29701;BMP280;57917;51.380;-0.176;2023-11-22T17:00:29;102489.53;;;11.36
29701;BMP280;57917;51.380;-0.176;2023-11-22T17:06:20;102490.59;;;11.23
29701;BMP280;57917;51.380;-0.176;2023-11-22T17:12:16;102509.75;;;11.25
29701;BMP280;57917;51.380;-0.176;2023-11-22T17:18:10;102520.91;;;11.39
29701;BMP280;57917;51.380;-0.176;2023-11-22T17:23:57;102518.88;;;11.18
29701;BMP280;57917;51.380;-0.176;2023-11-22T17:29:47;102524.59;;;11.38
29701;BMP280;57917;51.380;-0.176;2023-11-22T17:35:46;102523.88;;;11.43
29701;BMP280;57917;51.380;-0.176;2023-11-22T17:41:34;102523.41;;;11.57
29701;BMP280;57917;51.380;-0.176;2023-11-22T17:47:21;102517.44;;;11.78
29701;BMP280;57917;51.380;-0.176;2023-11-22T17:53:09;102508.56;;;11.73
29701;BMP280;57917;51.380;-0.176;2023-11-22T17:59:01;102522.19;;;11.65
29701;BMP280;57917;51.380;-0.176;2023-11-22T18:04:51;102531.09;;;11.70
29701;BMP280;57917;51.380;-0.176;2023-11-22T18:10:40;102526.66;;;11.76
29701;BMP280;57917;51.380;-0.176;2023-11-22T18:16:37;102508.81;;;11.88
29701;BMP280;57917;51.380;-0.176;2023-11-22T18:22:37;102516.28;;;11.74
29701;BMP280;57917;51.380;-0.176;2023-11-22T18:28:24;102530.50;;;11.68
29701;BMP280;57917;51.380;-0.176;2023-11-22T18:34:18;102531.34;;;11.85
29701;BMP280;57917;51.380;-0.176;2023-11-22T18:40:10;102522.06;;;11.99
29701;BMP280;57917;51.380;-0.176;2023-11-22T18:45:58;102502.63;;;11.82
29701;BMP280;57917;51.380;-0.176;2023-11-22T18:51:57;102507.19;;;11.98
29701;BMP280;57917;51.380;-0.176;2023-11-22T18:57:50;102510.34;;;12.12
29701;BMP280;57917;51.380;-0.176;2023-11-22T19:03:41;102515.47;;;12.02
29701;BMP280;57917;51.380;-0.176;2023-11-22T19:09:39;102513.22;;;12.10
29701;BMP280;57917;51.380;-0.176;2023-11-22T19:15:26;102518.28;;;11.95
29701;BMP280;57917;51.380;-0.176;2023-11-22T19:21:32;102514.31;;;11.98
29701;BMP280;57917;51.380;-0.176;2023-11-22T19:27:20;102526.88;;;12.02
29701;BMP280;57917;51.380;-0.176;2023-11-22T19:33:07;102524.75;;;12.16
29701;BMP280;57917;51.380;-0.176;2023-11-22T19:39:14;102517.22;;;11.96
29701;BMP280;57917;51.380;-0.176;2023-11-22T19:45:01;102514.50;;;11.80
29701;BMP280;57917;51.380;-0.176;2023-11-22T19:50:56;102526.22;;;11.67
29701;BMP280;57917;51.380;-0.176;2023-11-22T19:56:52;102521.78;;;11.56
29701;BMP280;57917;51.380;-0.176;2023-11-22T20:02:41;102519.22;;;11.61
29701;BMP280;57917;51.380;-0.176;2023-11-22T20:08:30;102513.22;;;11.54
29701;BMP280;57917;51.380;-0.176;2023-11-22T20:14:19;102506.75;;;11.22
29701;BMP280;57917;51.380;-0.176;2023-11-22T20:20:08;102516.13;;;11.01
29701;BMP280;57917;51.380;-0.176;2023-11-22T20:26:01;102516.22;;;11.18
29701;BMP280;57917;51.380;-0.176;2023-11-22T20:31:52;102504.28;;;11.04
29701;BMP280;57917;51.380;-0.176;2023-11-22T20:37:44;102505.13;;;10.98
29701;BMP280;57917;51.380;-0.176;2023-11-22T20:43:42;102509.44;;;10.99
29701;BMP280;57917;51.380;-0.176;2023-11-22T20:49:30;102509.28;;;10.59
29701;BMP280;57917;51.380;-0.176;2023-11-22T20:55:21;102527.13;;;10.52
29701;BMP280;57917;51.380;-0.176;2023-11-22T21:01:08;102519.34;;;10.80
29701;BMP280;57917;51.380;-0.176;2023-11-22T21:06:59;102512.06;;;10.99
29701;BMP280;57917;51.380;-0.176;2023-11-22T21:12:48;102512.44;;;10.91
29701;BMP280;57917;51.380;-0.176;2023-11-22T21:18:35;102520.47;;;10.50
29701;BMP280;57917;51.380;-0.176;2023-11-22T21:24:52;102521.28;;;10.62
29701;BMP280;57917;51.380;-0.176;2023-11-22T21:31:03;102512.06;;;10.76
29701;BMP280;57917;51.380;-0.176;2023-11-22T21:36:55;102509.56;;;10.81
29701;BMP280;57917;51.380;-0.176;2023-11-22T21:42:44;102495.50;;;10.57
29701;BMP280;57917;51.380;-0.176;2023-11-22T21:48:49;102485.13;;;10.56
29701;BMP280;57917;51.380;-0.176;2023-11-22T21:54:49;102481.81;;;10.72
29701;BMP280;57917;51.380;-0.176;2023-11-22T22:01:00;102484.31;;;10.67
29701;BMP280;57917;51.380;-0.176;2023-11-22T22:06:47;102472.25;;;10.48
29701;BMP280;57917;51.380;-0.176;2023-11-22T22:12:34;102479.81;;;10.44
29701;BMP280;57917;51.380;-0.176;2023-11-22T22:18:22;102475.75;;;10.42
29701;BMP280;57917;51.380;-0.176;2023-11-22T22:24:12;102472.66;;;10.45
29701;BMP280;57917;51.380;-0.176;2023-11-22T22:30:02;102475.53;;;10.32
29701;BMP280;57917;51.380;-0.176;2023-11-22T22:35:49;102472.78;;;10.38
29701;BMP280;57917;51.380;-0.176;2023-11-22T22:41:36;102476.94;;;10.46
29701;BMP280;57917;51.380;-0.176;2023-11-22T22:47:31;102471.59;;;10.34
29701;BMP280;57917;51.380;-0.176;2023-11-22T22:53:18;102465.34;;;10.06
29701;BMP280;57917;51.380;-0.176;2023-11-22T22:59:06;102476.28;;;9.98
29701;BMP280;57917;51.380;-0.176;2023-11-22T23:04:53;102492.16;;;10.09
29701;BMP280;57917;51.380;-0.176;2023-11-22T23:10:40;102480.16;;;10.25
29701;BMP280;57917;51.380;-0.176;2023-11-22T23:16:27;102480.09;;;10.13
29701;BMP280;57917;51.380;-0.176;2023-11-22T23:22:16;102495.59;;;10.10
29701;BMP280;57917;51.380;-0.176;2023-11-22T23:28:18;102494.13;;;10.14
29701;BMP280;57917;51.380;-0.176;2023-11-22T23:34:05;102501.66;;;10.17
29701;BMP280;57917;51.380;-0.176;2023-11-22T23:39:54;102496.78;;;10.14
29701;BMP280;57917;51.380;-0.176;2023-11-22T23:45:46;102472.63;;;10.22
29701;BMP280;57917;51.380;-0.176;2023-11-22T23:51:38;102463.13;;;10.02
29701;BMP280;57917;51.380;-0.176;2023-11-22T23:57:24;102459.31;;;9.87
